UKDDUKLL

Guest
Details From UKDD - Dnipropetrovsk Intl
To UKLL - Lviv Intl
Flight Number -
Tags Generated
Created
Modified
Stats Distance 448 nm / 829 km
Max Altitude 0 ft / 0 m
Waypoints 4
Social Downloads 1
Likes 0
Share VATSIM

Download

Looking for another format? Having issues loading an existing format? Contact us
Advertisement - Login to hide

Notes

Generated

Route

UKDD GOROS LIV UKLL

ID Type Via Altitude Latitude Longitude Leg Dist Tot Dist Heading (true) Name
O UKDD APT - 0 ft / 0 m 48.35722˚ 35.08126˚ - 0 nm - -
GOROS FIX - 0 ft / 0 m 49.45641˚ 29.75659˚ 220 nm 220 nm 289° / 285° -
LIV VOR - 0 ft / 0 m 49.81160˚ 23.95097˚ 226 nm 447 nm 278° / 273° LVIV VOR-DME
O UKLL APT - 0 ft / 0 m 49.82083˚ 23.94389˚ 0 nm 447 nm 334° / 334° -

Altitude Profile

Advertisement - Login to hide

Weather


0- 5 10 15 20 25 30 35+ Temperature / ° C

Clouds and Precipitation
Forecast for 2018-05-23 00:00 UTC. Updated an hour ago

Ground ~20,000 ft ~40,000 ft Winds

UKDD

Details ICAO UKDD (DNK)
Name Dnipropetrovsk Intl
Region Ukraine
Timezone Europe/Kiev (UTC+3.0)
Stats Elevation 481 ft / 147 m (AMSL)
Location 48.357222° 35.100556°
Runways 1
Magnetic Variation 7.890° E

METAR

UKDD 230000Z 02004MPS 340V050 CAVOK 16/12 Q1021 R08/090070 NOSIG

Decode

TAF

Not found

Departure Runways

ID Width Length Bearing (true) Bearing (mag) Surface Threshold Offset Overrun Length
09 144 ft / 44 m 9,359 ft / 2,853 m 89.99° 82.10° Concrete 0 ft / 0 m 0 ft / 0 m
27 144 ft / 44 m 9,359 ft / 2,853 m 270.01° 262.12° Concrete 0 ft / 0 m 0 ft / 0 m

UKLL

Details ICAO UKLL (LWO)
Name LVIV INTL
Region Ukraine
Timezone Europe/Kiev (UTC+3.0)
Stats Elevation 1,071 ft / 326 m (AMSL)
Location 49.812638° 23.956111°
Runways 1
Magnetic Variation 6.152° E

METAR

UKLL 230000Z 14002MPS CAVOK 10/09 Q1019 R13/D NOSIG

Decode

TAF

TAF UKLL 222304Z 2300/2324 VRB02MPS 2100 BR BKN007 TEMPO 2300/2306 0700 FG VV003 BECMG 2306/2307 9999 NSW BKN020 SCT030CB TEMPO 2312/2324 VRB06G13MPS 2100 -TSRAGR BKN007 BKN020CB

Decode

Destination Runways

ID Width Length Bearing (true) Bearing (mag) Surface Threshold Offset Overrun Length
13 148 ft / 45 m 8,300 ft / 2,530 m 136.09° 129.94° Asphalt 0 ft / 0 m 160 ft / 49 m
31 148 ft / 45 m 8,300 ft / 2,530 m 316.11° 309.96° Asphalt 0 ft / 0 m 145 ft / 44 m

Approach Navaids

Runway Type Ident Frequency Range Bearing (true) Bearing (mag) Slope Elevation
13 Localiser ILO 109.50 MHz 18 nm / 33 km 135.94° 129.79° - 1,071 ft / 326 m (AMSL)
13 Glidescope ILO 109.50 MHz 10 nm / 19 km 136.10° 129.94° 3.00° 1,071 ft / 326 m (AMSL)
31 Localiser ILV 110.30 MHz 18 nm / 33 km 315.64° 309.49° - 1,071 ft / 326 m (AMSL)
31 Glidescope ILV 110.30 MHz 10 nm / 19 km 316.10° 309.94° 3.00° 1,071 ft / 326 m (AMSL)

Popular Alternatives